06:44
Airports
History
Links
Donate
Help keep this website running!
PayPal
Bitcoin
This page is community maintained. The information is intended for PC simulator navigation or reference.
Always use approved charts for navigation.
SSOG
Arapongas
Arapongas (SSOG)
Arapongas, Paraná, Brazil (86720)
(C)
Lat/Lng:23° 21' 10.28" S / 51° 29' 29.96" W
-23.352855 / -51.491656
Elevation:2599'ft / 792mMSL
ID / ICAO:SSOG
Runways:1
Longest:15-33
Asphalt 1,207m / 3,960ft
Controlled:Yes
Nearby Weather06:00 GMT 2017-12-12
Nearby weather at SBLO, Londrina located 23.0 nautical miles from SSOG
Altimeter: 29.88
Visibility: 6.2 statute miles
Wind: 11 knots (from 100°)
Temp: 19°c / 66°f
Humidity: 72.8%

METAR: SBLO 120600Z 10011KT CAVOK 19/14 Q1012

(Powered by phpweather)
Runway 15 / 33
Dimensions:1207 x 22.9m 3960' x 75'ft
Surface:Asphalt
Edge Lights:Low intensity
Runway 15 [A]Runway 33 [B]
Heading:137°TH 317°TH
Lat:
Lng:
23° 20' 55.87"S
51° 29' 44.41"W
23° 21' 24.68"S
51° 29' 15.51"W
User Notes and Comments
23° 21' 10.28" S / 51° 29' 29.96" W
Distance To
Airport ID:
Nearby Airports
4 Fazenda Santa Maria 15.8 NM
SSWM SE 129°
(C) Apucarana 19.0 NM
SSAP SSE 159°
4 14 Bis 21.6 NM
SSOK ENE 63°
(C) Londrina 23.0 NM
SBLO ( WX ) E 86°
4 Recanto das Aguias 25.5 NM
SSHN WNW 287°
4 Aero Agricola Gaivota 26.1 NM
SJTL N 352°
4 Fazenda Sao Francisco 31.1 NM
SDLV NNE 16°
VFR Chart
Flight Planning at SkyVector.com